Time;durP1;ratioP1;P1;durP2;ratioP2;P2;SDS_P1;SDS_P2;PMS_P1;PMS_P2;Temp;Humidity;BMP_temperature;BMP_pressure;BME280_temperature;BME280_humidity;BME280_pressure;Samples;Min_cycle;Max_cycle;Signal;HPM_P1;HPM_P2
2021/12/18 00:00:57;;;;;;;;;;;;;;;7.19;100.00;104080.44;5003535;28;20379;-71
2021/12/18 00:03:22;;;;;;;;;;;;;;;7.17;100.00;104084.53;5010166;28;19965;-73
2021/12/18 00:05:48;;;;;;;;;;;;;;;7.16;100.00;104090.41;5004901;28;20031;-72
2021/12/18 00:08:13;;;;;;;;;;;;;;;7.15;100.00;104080.91;5007345;28;19929;-72
2021/12/18 00:10:38;;;;;;;;;;;;;;;7.13;100.00;104074.75;5006687;28;19930;-73
2021/12/18 00:13:04;;;;;;;;;;;;;;;7.11;100.00;104071.16;5009973;28;19925;-73
2021/12/18 00:15:30;;;;;;;;;;;;;;;7.09;100.00;104067.53;5010122;28;20392;-72
2021/12/18 00:17:55;;;;;;;;;;;;;;;7.09;100.00;104064.97;5009502;28;19924;-72
2021/12/18 00:20:21;;;;;;;;;;;;;;;7.09;100.00;104066.66;5010107;28;20011;-73
2021/12/18 00:22:46;;;;;;;;;;;;;;;7.08;100.00;104072.53;5009350;28;19918;-72
2021/12/18 00:25:12;;;;;;;;;;;;;;;7.07;100.00;104063.94;5010430;28;19922;-72
2021/12/18 00:27:37;;;;;;;;;;;;;;;7.07;100.00;104057.94;5010445;28;20631;-72
2021/12/18 00:30:04;;;;;;;;;;;;;;;7.09;100.00;104057.31;5009398;28;19921;-74
2021/12/18 00:32:29;;;;;;;;;;;;;;;7.08;100.00;104058.06;5008807;28;19937;-73
2021/12/18 00:34:54;;;;;;;;;;;;;;;7.06;100.00;104051.03;5010298;28;19925;-73
2021/12/18 00:37:20;;;;;;;;;;;;;;;7.04;100.00;104056.00;5006153;28;19947;-73
2021/12/18 00:39:55;;;;;;;;;;;;;;;7.03;100.00;104050.72;5008167;28;21167;-73
2021/12/18 00:42:38;;;;;;;;;;;;;;;7.03;100.00;104063.53;5009846;28;19929;-73
2021/12/18 00:45:04;;;;;;;;;;;;;;;7.02;100.00;104051.50;5003851;28;19972;-73
2021/12/18 00:47:29;;;;;;;;;;;;;;;6.98;100.00;104040.97;5008850;28;19999;-73
2021/12/18 00:49:55;;;;;;;;;;;;;;;6.95;100.00;104042.34;5008558;28;19988;-73
2021/12/18 00:52:20;;;;;;;;;;;;;;;6.92;100.00;104042.97;5007683;28;19918;-72
2021/12/18 00:54:45;;;;;;;;;;;;;;;6.89;100.00;104042.66;5006999;28;19925;-71
2021/12/18 00:57:10;;;;;;;;;;;;;;;6.89;100.00;104037.56;5008589;28;19917;-71
2021/12/18 00:59:36;;;;;;;;;;;;;;;6.89;100.00;104037.56;5008846;28;19917;-73
2021/12/18 01:02:02;;;;;;;;;;;;;;;6.87;100.00;104030.50;5007728;28;19921;-74
2021/12/18 01:04:27;;;;;;;;;;;;;;;6.87;100.00;104035.63;5009194;28;19927;-72
2021/12/18 01:06:53;;;;;;;;;;;;;;;6.89;100.00;104036.66;5002415;28;20416;-71
2021/12/18 01:09:24;;;;;;;;;;;;;;;6.89;100.00;104029.88;5007654;28;19965;-71
2021/12/18 01:11:49;;;;;;;;;;;;;;;6.89;100.00;104026.41;5009587;28;19926;-72
2021/12/18 01:14:44;;;;;;;;;;;;;;;6.91;100.00;104022.34;5007006;28;19968;-72
2021/12/18 01:25:06;;;;;;;;;;;;;;;7.02;100.00;104024.25;5007231;28;19933;-71
2021/12/18 01:27:31;;;;;;;;;;;;;;;7.06;100.00;104030.56;5008688;28;19917;-71
2021/12/18 01:29:57;;;;;;;;;;;;;;;7.08;100.00;104027.38;5007344;28;19929;-72
2021/12/18 01:32:23;;;;;;;;;;;;;;;7.12;100.00;104036.25;5006772;28;19949;-72
2021/12/18 01:34:48;;;;;;;;;;;;;;;7.13;100.00;104028.69;5002893;28;19925;-72
2021/12/18 01:37:14;;;;;;;;;;;;;;;7.12;100.00;104026.00;5008666;28;19929;-71
2021/12/18 01:39:39;;;;;;;;;;;;;;;7.15;100.00;104028.84;5007264;28;19941;-72
2021/12/18 01:42:35;;;;;;;;;;;;;;;7.16;100.00;104029.00;5009022;28;19967;-72
2021/12/18 01:45:14;;;;;;;;;;;;;;;7.17;100.00;104024.78;5007859;28;19999;-73
2021/12/18 01:53:10;;;;;;;;;;;;;;;7.15;100.00;104049.31;5008078;28;19963;-72
2021/12/18 01:55:36;;;;;;;;;;;;;;;7.13;100.00;104054.28;5008200;28;19921;-71
2021/12/18 01:58:02;;;;;;;;;;;;;;;7.11;100.00;104050.69;5003316;28;19940;-72
2021/12/18 02:00:38;;;;;;;;;;;;;;;7.12;100.00;104052.50;5007726;28;20027;-72
2021/12/18 02:03:04;;;;;;;;;;;;;;;7.09;100.00;104056.41;5006887;28;19917;-73
2021/12/18 02:05:29;;;;;;;;;;;;;;;7.07;100.00;104056.28;5008001;28;19936;-71
2021/12/18 02:07:55;;;;;;;;;;;;;;;7.04;100.00;104050.88;5008007;28;20398;-71
2021/12/18 02:10:24;;;;;;;;;;;;;;;7.04;100.00;104058.56;5004943;28;19921;-71
2021/12/18 02:20:54;;;;;;;;;;;;;;;7.00;100.00;104059.03;5011049;28;19964;-72
2021/12/18 02:23:20;;;;;;;;;;;;;;;6.96;100.00;104055.28;5012775;28;19972;-72
2021/12/18 02:25:46;;;;;;;;;;;;;;;6.93;100.00;104046.44;5012558;28;19996;-71
2021/12/18 02:28:18;;;;;;;;;;;;;;;6.89;100.00;104047.78;5009867;28;19925;-71
2021/12/18 02:30:44;;;;;;;;;;;;;;;6.89;100.00;104037.56;5009005;28;20371;-74
2021/12/18 02:33:09;;;;;;;;;;;;;;;6.85;100.00;104039.66;5011723;28;19921;-71
2021/12/18 02:35:40;;;;;;;;;;;;;;;6.80;100.00;104036.72;5011984;28;19988;-71
2021/12/18 02:38:13;;;;;;;;;;;;;;;6.82;100.00;104030.06;5010100;28;20543;-74
2021/12/18 02:43:10;;;;;;;;;;;;;;;6.78;100.00;104034.75;5008126;28;19936;-72
2021/12/18 02:45:35;;;;;;;;;;;;;;;6.79;100.00;104028.88;5012418;28;19926;-72
2021/12/18 02:48:00;;;;;;;;;;;;;;;6.80;100.00;104025.56;5011936;28;19930;-73
2021/12/18 02:50:25;;;;;;;;;;;;;;;6.82;100.00;104019.84;5010763;28;19926;-71
2021/12/18 02:52:51;;;;;;;;;;;;;;;6.82;100.00;104011.25;5005569;28;20015;-71
2021/12/18 02:55:16;;;;;;;;;;;;;;;6.80;100.00;104013.69;5011354;28;21175;-71
2021/12/18 02:57:41;;;;;;;;;;;;;;;6.80;100.00;104015.34;5009108;28;19995;-73
2021/12/18 03:00:07;;;;;;;;;;;;;;;6.79;100.00;104011.84;5010408;28;19921;-71
2021/12/18 03:02:37;;;;;;;;;;;;;;;6.79;100.00;104004.19;5009177;28;19957;-71
2021/12/18 03:05:06;;;;;;;;;;;;;;;6.81;100.00;104009.47;5008817;28;21549;-72
2021/12/18 03:07:32;;;;;;;;;;;;;;;6.81;100.00;104007.81;5011295;28;20384;-72
2021/12/18 03:25:58;;;;;;;;;;;;;;;6.78;100.00;103999.84;5010456;28;19925;-71
2021/12/18 03:28:24;;;;;;;;;;;;;;;6.77;100.00;103999.69;5010721;28;19921;-71
2021/12/18 03:30:49;;;;;;;;;;;;;;;6.77;100.00;104002.25;5009322;28;20237;-73
2021/12/18 03:33:15;;;;;;;;;;;;;;;6.76;100.00;104003.91;5003986;28;19927;-72
2021/12/18 03:35:40;;;;;;;;;;;;;;;6.73;100.00;104006.16;5009747;28;19925;-71
2021/12/18 03:38:05;;;;;;;;;;;;;;;6.72;100.00;103999.25;5011124;28;19955;-72
2021/12/18 03:40:31;;;;;;;;;;;;;;;6.71;100.00;104007.69;5009370;28;19984;-71
2021/12/18 03:42:56;;;;;;;;;;;;;;;6.70;100.00;104008.47;5010708;28;20023;-70
2021/12/18 03:45:22;;;;;;;;;;;;;;;6.69;100.00;104014.34;5008303;28;19932;-72
2021/12/18 03:47:49;;;;;;;;;;;;;;;6.71;100.00;104007.69;5010846;28;19932;-70
2021/12/18 03:50:15;;;;;;;;;;;;;;;6.67;100.00;104010.72;5006843;28;19961;-72
2021/12/18 03:52:40;;;;;;;;;;;;;;;6.67;100.00;104008.16;5009605;28;19967;-71
2021/12/18 03:55:06;;;;;;;;;;;;;;;6.64;100.00;104011.34;5008564;28;19917;-72
2021/12/18 03:57:31;;;;;;;;;;;;;;;6.64;100.00;104013.00;5010447;28;20004;-70
2021/12/18 03:59:57;;;;;;;;;;;;;;;6.65;100.00;104004.56;5009767;28;19968;-71
2021/12/18 04:02:22;;;;;;;;;;;;;;;6.64;100.00;104000.22;5007486;28;19929;-71
2021/12/18 04:04:47;;;;;;;;;;;;;;;6.67;100.00;104003.03;5009143;28;19918;-71
2021/12/18 04:07:14;;;;;;;;;;;;;;;6.66;100.00;104006.34;5008411;28;19925;-71
2021/12/18 04:09:39;;;;;;;;;;;;;;;6.68;100.00;104000.66;5010153;28;20542;-70
2021/12/18 04:12:05;;;;;;;;;;;;;;;6.70;100.00;104006.78;5009516;28;19975;-70
2021/12/18 04:14:30;;;;;;;;;;;;;;;6.73;100.00;104006.16;5010448;28;20008;-74
2021/12/18 04:16:55;;;;;;;;;;;;;;;6.73;100.00;104006.16;5009352;28;20340;-71
2021/12/18 04:19:21;;;;;;;;;;;;;;;6.74;100.00;104000.31;5009777;28;19926;-72
2021/12/18 04:21:46;;;;;;;;;;;;;;;6.72;100.00;104007.81;5005256;28;19991;-71
2021/12/18 04:24:12;;;;;;;;;;;;;;;6.72;100.00;104001.81;5009724;28;19922;-71
2021/12/18 04:26:37;;;;;;;;;;;;;;;6.71;100.00;104000.91;5009483;28;19931;-74
2021/12/18 04:29:05;;;;;;;;;;;;;;;6.66;100.00;103997.03;5008610;28;19918;-72
2021/12/18 04:31:31;;;;;;;;;;;;;;;6.69;100.00;103999.88;5009333;28;19965;-71
2021/12/18 04:33:56;;;;;;;;;;;;;;;6.69;100.00;104010.13;5009247;28;19960;-71
2021/12/18 04:36:21;;;;;;;;;;;;;;;6.73;100.00;104018.94;5009578;28;19925;-71
2021/12/18 04:38:47;;;;;;;;;;;;;;;6.71;100.00;104011.16;5010220;28;19917;-74
2021/12/18 04:41:20;;;;;;;;;;;;;;;6.74;100.00;104010.56;5009097;28;19917;-71
2021/12/18 04:43:45;;;;;;;;;;;;;;;6.78;100.00;104011.72;5007135;28;19922;-71
2021/12/18 04:46:10;;;;;;;;;;;;;;;6.81;100.00;104012.91;5008841;28;19933;-71
2021/12/18 04:48:36;;;;;;;;;;;;;;;6.83;100.00;104021.63;5007113;28;20329;-71
2021/12/18 04:51:01;;;;;;;;;;;;;;;6.86;100.00;104019.38;5010047;28;19921;-71
2021/12/18 04:53:26;;;;;;;;;;;;;;;6.87;100.00;104026.28;5008893;28;19917;-71
2021/12/18 04:55:51;;;;;;;;;;;;;;;6.87;100.00;104025.38;5009000;28;19983;-71
2021/12/18 04:58:16;;;;;;;;;;;;;;;6.86;100.00;104027.06;5007188;28;20296;-71
2021/12/18 05:00:46;;;;;;;;;;;;;;;6.84;100.00;104031.09;5009489;28;19928;-71
2021/12/18 05:03:13;;;;;;;;;;;;;;;6.81;100.00;104030.81;5007895;28;20340;-71
2021/12/18 05:05:38;;;;;;;;;;;;;;;6.82;100.00;104032.63;5009306;28;19929;-71
2021/12/18 05:08:04;;;;;;;;;;;;;;;6.83;100.00;104031.84;5006150;28;20297;-71
2021/12/18 05:10:30;;;;;;;;;;;;;;;6.83;100.00;104026.75;5006748;28;20824;-72
2021/12/18 05:12:55;;;;;;;;;;;;;;;6.84;100.00;104031.09;5004156;28;19921;-71
2021/12/18 05:15:21;;;;;;;;;;;;;;;6.87;100.00;104023.72;5005767;28;19932;-71
2021/12/18 05:17:46;;;;;;;;;;;;;;;6.90;100.00;104033.34;5001685;28;19913;-72
2021/12/18 05:20:11;;;;;;;;;;;;;;;6.90;100.00;104026.56;5004289;28;20439;-71
2021/12/18 05:22:37;;;;;;;;;;;;;;;6.84;100.00;104023.44;5008804;28;19924;-72
2021/12/18 05:25:03;;;;;;;;;;;;;;;6.81;100.00;104019.69;5006955;28;19925;-72
2021/12/18 05:27:28;;;;;;;;;;;;;;;6.74;100.00;104023.34;5007371;28;20284;-72
2021/12/18 05:29:53;;;;;;;;;;;;;;;6.72;100.00;104027.38;5008816;28;19924;-73
2021/12/18 05:32:18;;;;;;;;;;;;;;;6.67;100.00;104031.16;5007761;28;19996;-72
2021/12/18 05:34:44;;;;;;;;;;;;;;;6.65;100.00;104028.47;5007722;28;19961;-74
2021/12/18 05:39:53;;;;;;;;;;;;;;;6.61;100.00;104028.97;5003954;28;19983;-71
2021/12/18 05:42:18;;;;;;;;;;;;;;;6.62;100.00;104029.84;5009292;28;20283;-71
2021/12/18 05:44:44;;;;;;;;;;;;;;;6.62;100.00;104032.41;5008214;28;20001;-72
2021/12/18 05:47:09;;;;;;;;;;;;;;;6.60;100.00;104032.25;5007205;28;20540;-71
2021/12/18 05:49:34;;;;;;;;;;;;;;;6.61;100.00;104022.91;5002745;28;20347;-72
2021/12/18 05:52:00;;;;;;;;;;;;;;;6.60;100.00;104024.56;5002360;28;19964;-72
2021/12/18 05:54:25;;;;;;;;;;;;;;;6.60;100.00;104026.22;5004951;28;19924;-72
2021/12/18 05:56:50;;;;;;;;;;;;;;;6.60;100.00;104021.13;5005571;28;20324;-71
2021/12/18 05:59:16;;;;;;;;;;;;;;;6.61;100.00;104023.84;5007371;28;19924;-72
2021/12/18 06:01:42;;;;;;;;;;;;;;;6.63;100.00;104023.97;5004493;28;19944;-74
2021/12/18 06:04:07;;;;;;;;;;;;;;;6.68;100.00;104025.31;5007364;28;19940;-72
2021/12/18 06:06:32;;;;;;;;;;;;;;;6.71;100.00;104025.59;5007299;28;19965;-70
2021/12/18 06:08:58;;;;;;;;;;;;;;;6.74;100.00;104019.88;5005225;28;19922;-71
2021/12/18 06:11:26;;;;;;;;;;;;;;;6.76;100.00;104023.47;5006707;28;19976;-71
2021/12/18 06:13:52;;;;;;;;;;;;;;;6.79;100.00;104021.19;5008392;28;19964;-71
2021/12/18 06:16:18;;;;;;;;;;;;;;;6.80;100.00;104020.47;5006417;28;19952;-72
2021/12/18 06:18:44;;;;;;;;;;;;;;;6.80;100.00;104017.91;5006425;28;19925;-71
2021/12/18 06:21:12;;;;;;;;;;;;;;;6.82;100.00;104013.81;5008924;28;19917;-71
2021/12/18 06:23:38;;;;;;;;;;;;;;;6.82;100.00;104001.94;5010233;28;19957;-72
2021/12/18 06:26:03;;;;;;;;;;;;;;;6.86;100.00;104005.69;5001195;28;20336;-71
2021/12/18 06:28:28;;;;;;;;;;;;;;;6.86;100.00;104005.69;5006269;28;19929;-72
2021/12/18 06:30:54;;;;;;;;;;;;;;;6.86;100.00;104005.69;5007483;28;20254;-72
2021/12/18 06:33:19;;;;;;;;;;;;;;;6.86;100.00;104010.81;5004735;28;19918;-74
2021/12/18 06:35:44;;;;;;;;;;;;;;;6.87;100.00;104017.72;5008172;28;19921;-71
2021/12/18 06:38:10;;;;;;;;;;;;;;;6.87;100.00;104016.06;5008469;28;19922;-73
2021/12/18 06:40:35;;;;;;;;;;;;;;;6.90;100.00;104018.88;5007257;28;19925;-71
2021/12/18 06:43:01;;;;;;;;;;;;;;;6.92;100.00;104012.28;5006978;28;19921;-71
2021/12/18 06:45:26;;;;;;;;;;;;;;;6.93;100.00;104018.28;5007582;28;19933;-71
2021/12/18 06:47:52;;;;;;;;;;;;;;;6.96;100.00;104013.44;5007969;28;19921;-72
2021/12/18 06:50:17;;;;;;;;;;;;;;;6.96;100.00;104016.88;5007556;28;19926;-71
2021/12/18 06:52:43;;;;;;;;;;;;;;;6.97;100.00;104012.66;5006897;28;19933;-71
2021/12/18 06:55:08;;;;;;;;;;;;;;;6.97;100.00;104008.44;5006665;28;19925;-71
2021/12/18 06:57:34;;;;;;;;;;;;;;;6.98;100.00;104005.16;5004866;28;19936;-71
2021/12/18 06:59:59;;;;;;;;;;;;;;;7.01;100.00;104021.53;5001741;28;19922;-74
2021/12/18 07:02:25;;;;;;;;;;;;;;;6.99;100.00;104009.50;5006973;28;19945;-75
2021/12/18 07:04:51;;;;;;;;;;;;;;;7.00;100.00;104010.41;5007518;28;19960;-72
2021/12/18 07:07:16;;;;;;;;;;;;;;;6.96;100.00;104009.22;5010337;28;19976;-71
2021/12/18 07:09:42;;;;;;;;;;;;;;;6.97;100.00;104011.00;5010266;28;20264;-73
2021/12/18 07:12:10;;;;;;;;;;;;;;;6.96;100.00;104011.78;5007642;28;20288;-72
2021/12/18 07:14:35;;;;;;;;;;;;;;;6.96;100.00;104011.78;5010058;28;20284;-72
2021/12/18 07:17:00;;;;;;;;;;;;;;;6.96;100.00;104014.34;5010335;28;19925;-73
2021/12/18 07:19:26;;;;;;;;;;;;;;;6.97;100.00;104011.00;5007914;28;19996;-72
2021/12/18 07:21:51;;;;;;;;;;;;;;;6.98;100.00;104012.84;5008887;28;20352;-72
2021/12/18 07:24:16;;;;;;;;;;;;;;;6.98;100.00;104017.97;5011049;28;19979;-73
2021/12/18 07:26:42;;;;;;;;;;;;;;;6.98;100.00;104017.06;5010223;28;19969;-72
2021/12/18 07:29:07;;;;;;;;;;;;;;;6.97;100.00;104021.25;5006847;28;19928;-71
2021/12/18 07:31:32;;;;;;;;;;;;;;;6.95;100.00;104014.19;5010768;28;19949;-73
2021/12/18 07:33:57;;;;;;;;;;;;;;;6.93;100.00;104015.72;5004507;28;19960;-73
2021/12/18 07:36:23;;;;;;;;;;;;;;;6.92;100.00;104017.38;5012121;28;20267;-73
2021/12/18 07:38:48;;;;;;;;;;;;;;;6.92;100.00;104017.38;5011138;28;19925;-73
2021/12/18 07:41:13;;;;;;;;;;;;;;;6.91;100.00;104020.69;5006750;28;19921;-73
2021/12/18 07:43:39;;;;;;;;;;;;;;;6.92;100.00;104027.63;5010002;28;19917;-72
2021/12/18 07:46:04;;;;;;;;;;;;;;;6.91;100.00;104030.00;5009753;28;19930;-72
2021/12/18 07:48:29;;;;;;;;;;;;;;;6.91;100.00;104033.47;5006279;28;19930;-72
2021/12/18 07:50:55;;;;;;;;;;;;;;;6.92;100.00;104030.19;5004653;28;19929;-74
2021/12/18 07:53:21;;;;;;;;;;;;;;;6.93;100.00;104042.22;5000263;28;19922;-72
2021/12/18 07:55:47;;;;;;;;;;;;;;;6.92;100.00;104032.75;5003087;28;19945;-74
2021/12/18 07:58:12;;;;;;;;;;;;;;;6.93;100.00;104028.50;5008863;28;21262;-72
2021/12/18 08:00:37;;;;;;;;;;;;;;;6.95;100.00;104032.09;5002718;28;20694;-73
2021/12/18 08:03:03;;;;;;;;;;;;;;;6.94;100.00;104033.78;5008723;28;19968;-71
2021/12/18 08:05:28;;;;;;;;;;;;;;;6.96;100.00;104029.69;5012117;28;20272;-73
2021/12/18 08:07:53;;;;;;;;;;;;;;;6.98;100.00;104033.31;5004299;28;19938;-72
2021/12/18 08:10:19;;;;;;;;;;;;;;;6.95;100.00;104022.78;5005457;28;19987;-72
2021/12/18 08:12:44;;;;;;;;;;;;;;;6.95;100.00;104038.13;5007279;28;19979;-72
2021/12/18 08:15:09;;;;;;;;;;;;;;;6.93;100.00;104024.31;5009358;28;20334;-74
2021/12/18 08:17:35;;;;;;;;;;;;;;;6.91;100.00;104018.13;5004817;28;19921;-71
2021/12/18 08:20:01;;;;;;;;;;;;;;;6.90;100.00;104033.34;5003222;28;19930;-71
2021/12/18 08:22:26;;;;;;;;;;;;;;;6.90;100.00;104031.66;5006942;28;19995;-73
2021/12/18 08:24:51;;;;;;;;;;;;;;;6.91;100.00;104022.34;5003997;28;20821;-71
2021/12/18 08:27:17;;;;;;;;;;;;;;;6.92;100.00;104024.16;5008849;28;19926;-73
2021/12/18 08:29:42;;;;;;;;;;;;;;;6.93;100.00;104029.41;5008937;28;20331;-72
2021/12/18 08:32:07;;;;;;;;;;;;;;;6.95;100.00;104035.56;5007982;28;19964;-74
2021/12/18 08:34:33;;;;;;;;;;;;;;;6.95;100.00;104027.88;5010461;28;19949;-73
2021/12/18 08:36:58;;;;;;;;;;;;;;;6.99;100.00;104027.44;5009136;28;19957;-72
2021/12/18 08:39:23;;;;;;;;;;;;;;;7.02;100.00;104026.81;5008366;28;20006;-74
2021/12/18 08:41:49;;;;;;;;;;;;;;;7.06;100.00;104025.44;5009434;28;19921;-73
2021/12/18 08:44:14;;;;;;;;;;;;;;;7.09;100.00;104020.59;5006411;28;19921;-74
2021/12/18 08:46:40;;;;;;;;;;;;;;;7.12;100.00;104026.91;5004899;28;19936;-73
2021/12/18 08:49:05;;;;;;;;;;;;;;;7.12;100.00;104031.13;5003778;28;20344;-73
2021/12/18 08:51:30;;;;;;;;;;;;;;;7.14;100.00;104035.59;5004760;28;20044;-72
2021/12/18 08:53:56;;;;;;;;;;;;;;;7.16;100.00;104028.06;5003851;28;19925;-72
2021/12/18 08:56:21;;;;;;;;;;;;;;;7.17;100.00;104041.03;5004142;28;19980;-74
2021/12/18 08:58:47;;;;;;;;;;;;;;;7.21;100.00;104032.84;5003424;28;19925;-72
2021/12/18 09:01:12;;;;;;;;;;;;;;;7.29;100.00;104036.13;5005319;28;19922;-72
2021/12/18 09:03:37;;;;;;;;;;;;;;;7.31;100.00;104038.84;5003860;28;19932;-72
2021/12/18 09:06:03;;;;;;;;;;;;;;;7.35;100.00;104023.00;5003149;28;19925;-73
2021/12/18 09:08:28;;;;;;;;;;;;;;;7.41;100.00;104026.13;5004248;28;19996;-72
2021/12/18 09:10:53;;;;;;;;;;;;;;;7.34;100.00;104031.41;5007326;28;20064;-73
2021/12/18 09:13:19;;;;;;;;;;;;;;;7.23;100.00;104033.03;5005533;28;19976;-71
2021/12/18 09:15:44;;;;;;;;;;;;;;;7.18;100.00;104034.25;5009486;28;20007;-71
2021/12/18 09:18:09;;;;;;;;;;;;;;;7.17;100.00;104029.91;5006561;28;20016;-74
2021/12/18 09:20:35;;;;;;;;;;;;;;;7.16;100.00;104029.00;5008681;28;19928;-71
2021/12/18 09:23:01;;;;;;;;;;;;;;;7.12;100.00;104031.13;5005004;28;19983;-72
2021/12/18 09:25:26;;;;;;;;;;;;;;;7.06;100.00;104028.00;5006278;28;19930;-71
2021/12/18 09:27:56;;;;;;;;;;;;;;;7.02;100.00;104031.91;5006587;28;19928;-74
2021/12/18 09:30:22;;;;;;;;;;;;;;;7.00;100.00;104041.13;5008377;28;19925;-71
2021/12/18 09:32:47;;;;;;;;;;;;;;;6.94;100.00;104033.78;5008029;28;19925;-71
2021/12/18 09:35:12;;;;;;;;;;;;;;;6.92;100.00;104026.72;5007559;28;19963;-72
2021/12/18 09:37:38;;;;;;;;;;;;;;;6.94;100.00;104028.66;5008609;28;20233;-72
2021/12/18 09:40:04;;;;;;;;;;;;;;;7.02;100.00;104024.25;5007700;28;19918;-72
2021/12/18 09:42:30;;;;;;;;;;;;;;;7.10;100.00;104028.44;5005510;28;19925;-72
2021/12/18 09:44:55;;;;;;;;;;;;;;;7.18;100.00;104024.00;5002408;28;19987;-73
2021/12/18 09:47:21;;;;;;;;;;;;;;;7.24;100.00;104025.47;5002186;28;19929;-72
2021/12/18 09:49:46;;;;;;;;;;;;;;;7.30;100.00;104024.25;5002608;28;19925;-73
2021/12/18 09:52:12;;;;;;;;;;;;;;;7.35;100.00;104023.00;4998504;28;19925;-72
2021/12/18 09:54:38;;;;;;;;;;;;;;;7.39;100.00;104025.97;5003042;28;19972;-72
2021/12/18 09:57:03;;;;;;;;;;;;;;;7.42;100.00;104022.81;5004898;28;19929;-72
2021/12/18 09:59:28;;;;;;;;;;;;;;;7.43;100.00;104016.91;5004267;28;20348;-72
2021/12/18 10:01:54;;;;;;;;;;;;;;;7.45;100.00;104017.94;5001109;28;19922;-75
2021/12/18 10:04:45;;;;;;;;;;;;;;;7.49;100.00;104020.94;5005666;28;19965;-72
2021/12/18 10:07:18;;;;;;;;;;;;;;;7.49;100.00;104017.47;5000185;28;19955;-72
2021/12/18 10:09:44;;;;;;;;;;;;;;;7.49;100.00;104012.34;5003594;28;19925;-74
2021/12/18 10:12:16;;;;;;;;;;;;;;;7.52;100.00;104016.09;5003206;28;20272;-71
2021/12/18 10:14:44;;;;;;;;;;;;;;;7.50;100.00;104022.72;5004838;28;19926;-72
2021/12/18 10:17:26;;;;;;;;;;;;;;;7.51;100.00;104010.81;5003542;28;19917;-73
2021/12/18 10:19:53;;;;;;;;;;;;;;;7.57;100.00;104006.25;5001030;28;19975;-73
2021/12/18 10:22:18;;;;;;;;;;;;;;;7.61;100.00;104007.44;5008103;28;20008;-71
2021/12/18 10:24:45;;;;;;;;;;;;;;;7.61;100.00;104010.00;5002548;28;20011;-71
2021/12/18 10:27:21;;;;;;;;;;;;;;;7.65;100.00;104006.97;5001231;28;19921;-72
2021/12/18 10:29:47;;;;;;;;;;;;;;;7.67;100.00;104008.00;5004340;28;19929;-71
2021/12/18 10:32:15;;;;;;;;;;;;;;;7.69;100.00;104009.00;5005935;28;19925;-72
2021/12/18 10:34:41;;;;;;;;;;;;;;;7.72;100.00;104004.19;5005805;28;19961;-71
2021/12/18 10:37:11;;;;;;;;;;;;;;;7.74;100.00;104000.09;5010275;28;19917;-70
2021/12/18 10:39:38;;;;;;;;;;;;;;;7.75;100.00;104001.88;5008835;28;19992;-70
2021/12/18 10:42:35;;;;;;;;;;;;;;;7.76;100.00;103994.31;5006471;28;20008;-74
2021/12/18 10:45:03;;;;;;;;;;;;;;;7.71;100.00;104010.06;4993620;28;19960;-71
2021/12/18 10:47:47;;;;;;;;;;;;;;;7.70;100.00;103995.44;5004430;28;19930;-72
2021/12/18 10:50:17;;;;;;;;;;;;;;;7.75;100.00;103996.75;5005429;28;19932;-71
2021/12/18 10:52:42;;;;;;;;;;;;;;;7.75;100.00;103991.63;5007038;28;20258;-70
2021/12/18 10:55:08;;;;;;;;;;;;;;;7.73;100.00;103994.06;5008280;28;19929;-72
2021/12/18 10:57:33;;;;;;;;;;;;;;;7.72;100.00;103991.38;5008515;28;19925;-72
2021/12/18 10:59:58;;;;;;;;;;;;;;;7.70;100.00;103998.00;5011149;28;20008;-72
2021/12/18 11:02:27;;;;;;;;;;;;;;;7.70;100.00;103990.31;5012574;28;19913;-72
2021/12/18 11:04:52;;;;;;;;;;;;;;;7.70;100.00;103986.09;5013056;28;19917;-70
2021/12/18 11:07:18;;;;;;;;;;;;;;;7.67;100.00;103985.84;5008173;28;19936;-71
2021/12/18 11:09:59;;;;;;;;;;;;;;;7.64;100.00;103988.09;5008193;28;19935;-71
2021/12/18 11:15:08;;;;;;;;;;;;;;;7.58;100.00;103991.78;5006882;28;20372;-73
2021/12/18 11:17:33;;;;;;;;;;;;;;;7.56;100.00;103993.31;5005939;28;20008;-72
2021/12/18 11:19:59;;;;;;;;;;;;;;;7.55;100.00;103994.09;5008790;28;19921;-71
2021/12/18 11:22:24;;;;;;;;;;;;;;;7.53;100.00;103989.72;5003058;28;19921;-71
2021/12/18 11:24:58;;;;;;;;;;;;;;;7.47;100.00;103986.63;4988909;28;19991;-72
2021/12/18 11:27:24;;;;;;;;;;;;;;;7.42;100.00;103994.63;5004786;28;19929;-73
2021/12/18 11:29:54;;;;;;;;;;;;;;;7.37;100.00;103988.19;5006103;28;20496;-72
2021/12/18 11:32:22;;;;;;;;;;;;;;;7.37;100.00;103994.22;5006466;28;19948;-74
2021/12/18 11:34:48;;;;;;;;;;;;;;;7.40;100.00;103988.47;5006336;28;19917;-73
2021/12/18 11:37:15;;;;;;;;;;;;;;;7.38;100.00;103985.75;5004714;28;20276;-72
2021/12/18 11:39:41;;;;;;;;;;;;;;;7.38;100.00;103988.31;5002573;28;19925;-72
2021/12/18 11:42:07;;;;;;;;;;;;;;;7.42;100.00;103992.06;5005826;28;20491;-72
2021/12/18 11:44:34;;;;;;;;;;;;;;;7.41;100.00;103980.94;5005914;28;19929;-73
2021/12/18 11:47:20;;;;;;;;;;;;;;;7.46;100.00;103984.81;5004186;28;20351;-72
2021/12/18 11:49:45;;;;;;;;;;;;;;;7.51;100.00;103982.66;5005469;28;19949;-75
2021/12/18 11:52:10;;;;;;;;;;;;;;;7.44;100.00;103978.63;5005786;28;19975;-74
2021/12/18 11:54:44;;;;;;;;;;;;;;;7.38;100.00;103975.53;5007705;28;19929;-74
2021/12/18 11:57:09;;;;;;;;;;;;;;;7.32;100.00;103974.97;5002644;28;19929;-73
2021/12/18 11:59:40;;;;;;;;;;;;;;;7.26;100.00;103967.63;5006705;28;19921;-74
2021/12/18 12:02:05;;;;;;;;;;;;;;;7.26;100.00;103970.19;5000848;28;19917;-74
2021/12/18 12:04:49;;;;;;;;;;;;;;;7.21;100.00;103960.28;5007246;28;19925;-73
2021/12/18 12:07:21;;;;;;;;;;;;;;;7.18;100.00;103965.16;5003246;28;19945;-74
2021/12/18 12:10:05;;;;;;;;;;;;;;;7.15;100.00;103962.28;5007546;28;19925;-75
2021/12/18 12:12:57;;;;;;;;;;;;;;;7.12;100.00;103950.13;5002029;28;20281;-73
2021/12/18 12:15:24;;;;;;;;;;;;;;;7.16;100.00;103951.28;5003813;28;19956;-74
2021/12/18 12:17:57;;;;;;;;;;;;;;;7.23;100.00;103952.00;5002591;28;20338;-75
2021/12/18 12:20:42;;;;;;;;;;;;;;;7.30;100.00;103947.44;5004313;28;20426;-73
2021/12/18 12:23:09;;;;;;;;;;;;;;;7.30;100.00;103948.34;5003077;28;20434;-73
2021/12/18 12:25:40;;;;;;;;;;;;;;;7.28;100.00;103942.19;5002632;28;20408;-75
2021/12/18 12:28:07;;;;;;;;;;;;;;;7.29;100.00;103946.56;5001691;28;19926;-72
2021/12/18 12:30:36;;;;;;;;;;;;;;;7.28;100.00;103941.28;5006315;28;19925;-72
2021/12/18 12:33:06;;;;;;;;;;;;;;;7.24;100.00;103935.00;5006593;28;19921;-74
2021/12/18 12:35:51;;;;;;;;;;;;;;;7.27;100.00;103945.50;5003864;28;19940;-75
2021/12/18 12:38:27;;;;;;;;;;;;;;;7.21;100.00;103940.72;5002634;28;19918;-74
2021/12/18 12:40:56;;;;;;;;;;;;;;;7.21;100.00;103935.59;5003822;28;19918;-72
2021/12/18 12:43:24;;;;;;;;;;;;;;;7.17;100.00;103933.53;5004244;28;20319;-74
2021/12/18 12:45:52;;;;;;;;;;;;;;;7.19;100.00;103933.66;5007743;28;19969;-73
2021/12/18 12:48:19;;;;;;;;;;;;;;;7.20;100.00;103928.69;5007709;28;19952;-70
2021/12/18 12:50:53;;;;;;;;;;;;;;;7.19;100.00;103920.88;5006010;28;19925;-72
2021/12/18 12:53:18;;;;;;;;;;;;;;;7.17;100.00;103919.84;5003604;28;19971;-71
2021/12/18 12:55:45;;;;;;;;;;;;;;;7.18;100.00;103929.31;5002529;28;19922;-70
2021/12/18 12:58:29;;;;;;;;;;;;;;;7.13;100.00;103920.31;5002617;28;19925;-71
2021/12/18 13:00:58;;;;;;;;;;;;;;;7.07;100.00;103919.75;5009741;28;19921;-71
2021/12/18 13:03:26;;;;;;;;;;;;;;;7.08;100.00;103919.91;5008286;28;19921;-75
2021/12/18 13:05:53;;;;;;;;;;;;;;;6.96;100.00;103918.78;5009541;28;19922;-72
2021/12/18 13:08:19;;;;;;;;;;;;;;;6.95;100.00;103912.75;5011804;28;19920;-71
2021/12/18 13:10:47;;;;;;;;;;;;;;;6.98;100.00;103917.28;5010143;28;19925;-72
2021/12/18 13:13:15;;;;;;;;;;;;;;;6.92;100.00;103915.06;5004922;28;20441;-72
2021/12/18 13:15:46;;;;;;;;;;;;;;;6.91;100.00;103913.22;5004851;28;19917;-73
2021/12/18 13:18:16;;;;;;;;;;;;;;;6.85;100.00;103899.88;5004581;28;19984;-71
2021/12/18 13:20:46;;;;;;;;;;;;;;;6.81;100.00;103902.94;5007788;28;19932;-72